Jiaoxian, China
Current Conditions -  °F | °C
As of 3:00 PM on Friday 19 Dec 2014 (Local Time) from ZSQD Reporting Station
Clear Clear  
Wind Chill:   Ceiling: Unl
Heat Index:   Visibility: 6mi
Dew Point: -3°   Wind: 9mph
Humidity: 43%   Direction: 180°S
Pressure: 30.12"   Gusts: NA
Location:  36.28°N, 120°E
Report Text: ZSQD 190700Z 18004MPS CAVOK 09/M03 Q1020 BECMG TL083031005MPS
Loading
Personal Weather Stations






























Interactive Weather Map New forecast layout! Learn more

10-Day Weather Forecast

Advertisements
Track Severe Weather on mobile